Time;durP1;ratioP1;P1;durP2;ratioP2;P2;SDS_P1;SDS_P2;PMS_P1;PMS_P2;Temp;Humidity;BMP_temperature;BMP_pressure;BME280_temperature;BME280_humidity;BME280_pressure;Samples;Min_cycle;Max_cycle;Signal;HPM_P1;HPM_P2
2020/12/05 00:02:02;;;;;;;35.63;16.73;;;;;;;-1.28;88.00;102223.30;1601478;88;21181;-33
2020/12/05 00:04:30;;;;;;;28.85;15.08;;;;;;;-1.28;87.90;102239.83;1601500;89;20951;-35
2020/12/05 00:06:58;;;;;;;27.35;15.50;;;;;;;-1.31;88.01;102237.97;1601514;89;20983;-34
2020/12/05 00:09:26;;;;;;;30.05;15.10;;;;;;;-1.31;88.06;102243.46;1601523;89;21217;-35
2020/12/05 00:11:54;;;;;;;29.45;15.23;;;;;;;-1.33;88.13;102247.17;1601479;89;21061;-34
2020/12/05 00:14:22;;;;;;;33.98;16.42;;;;;;;-1.28;88.17;102238.93;1601524;89;20994;-34
2020/12/05 00:16:51;;;;;;;27.80;14.28;;;;;;;-1.27;88.07;102245.77;1601438;89;21022;-35
2020/12/05 00:19:19;;;;;;;27.67;13.35;;;;;;;-1.28;88.12;102242.37;1601574;89;20944;-34
2020/12/05 00:21:54;;;;;;;28.55;14.70;;;;;;;-1.28;88.15;102242.37;1601493;89;21219;-35
2020/12/05 00:24:22;;;;;;;31.60;15.40;;;;;;;-1.24;88.18;102239.21;1579853;90;21114;-35
2020/12/05 00:26:50;;;;;;;27.13;15.40;;;;;;;-1.24;87.98;102244.30;1579833;90;21063;-35
2020/12/05 00:29:19;;;;;;;26.90;13.93;;;;;;;-1.24;87.88;102237.94;1579876;90;21119;-36
2020/12/05 00:31:53;;;;;;;29.72;15.03;;;;;;;-1.27;88.02;102241.95;1579900;90;20976;-35
2020/12/05 00:34:22;;;;;;;27.45;15.20;;;;;;;-1.26;88.03;102236.98;1579966;90;21161;-34
2020/12/05 00:36:52;;;;;;;29.80;15.08;;;;;;;-1.25;87.97;102238.73;1579837;90;21019;-35
2020/12/05 00:39:20;;;;;;;25.15;14.35;;;;;;;-1.24;88.00;102239.21;1579896;90;20975;-37
2020/12/05 00:41:50;;;;;;;28.62;14.47;;;;;;;-1.19;87.87;102236.95;1544180;93;21110;-35
2020/12/05 00:44:19;;;;;;;28.02;14.53;;;;;;;-1.20;87.80;102229.70;1560037;89;20927;-34
2020/12/05 00:46:47;;;;;;;27.52;14.60;;;;;;;-1.20;87.82;102225.03;1601447;89;21228;-34
2020/12/05 00:49:15;;;;;;;29.55;16.12;;;;;;;-1.24;87.92;102212.94;1601418;89;20983;-35
2020/12/05 00:51:49;;;;;;;28.70;14.68;;;;;;;-1.20;87.84;102223.34;1601512;89;20986;-34
2020/12/05 00:54:17;;;;;;;27.05;14.70;;;;;;;-1.25;88.01;102222.63;1601410;89;20998;-34
2020/12/05 00:56:45;;;;;;;29.52;14.93;;;;;;;-1.22;88.08;102221.53;1601547;89;21423;-35
2020/12/05 00:59:13;;;;;;;28.52;14.35;;;;;;;-1.25;88.12;102219.67;1601523;89;21466;-35
2020/12/05 01:01:41;;;;;;;32.30;16.20;;;;;;;-1.24;88.13;102222.69;1601334;89;21073;-36
2020/12/05 01:04:08;;;;;;;29.98;14.83;;;;;;;-1.18;88.12;102222.19;1601469;89;21077;-35
2020/12/05 01:06:37;;;;;;;30.37;16.02;;;;;;;-1.21;88.15;102220.73;1601428;89;21187;-34
2020/12/05 01:09:05;;;;;;;32.23;15.83;;;;;;;-1.21;88.16;102222.01;1601517;89;20995;-37
2020/12/05 01:11:33;;;;;;;28.17;16.12;;;;;;;-1.18;88.13;102219.64;1578540;89;21458;-35
2020/12/05 01:14:01;;;;;;;31.85;16.35;;;;;;;-1.16;87.98;102217.66;1601467;89;20971;-34
2020/12/05 01:16:29;;;;;;;35.05;18.10;;;;;;;-1.17;87.90;102213.36;1601481;89;20944;-35
2020/12/05 01:18:56;;;;;;;39.42;19.52;;;;;;;-1.12;87.57;102215.31;1601530;89;20995;-35
2020/12/05 01:21:24;;;;;;;39.78;19.00;;;;;;;-1.10;87.48;102218.82;1601585;89;21034;-37
2020/12/05 01:23:52;;;;;;;30.00;17.57;;;;;;;-1.11;87.38;102219.61;1601525;89;22359;-35
2020/12/05 01:26:21;;;;;;;39.95;21.68;;;;;;;-1.17;87.48;102220.98;1578348;89;21457;-34
2020/12/05 01:28:49;;;;;;;49.08;23.38;;;;;;;-1.14;87.55;102227.03;1601380;89;21066;-35
2020/12/05 01:31:17;;;;;;;49.35;24.80;;;;;;;-1.12;87.55;102216.59;1601398;89;20931;-35
2020/12/05 01:33:45;;;;;;;42.70;23.22;;;;;;;-1.11;87.53;102223.42;1601430;89;20983;-35
2020/12/05 01:36:13;;;;;;;52.90;26.15;;;;;;;-1.13;87.59;102223.73;1601542;89;21235;-35
2020/12/05 01:38:40;;;;;;;46.10;24.27;;;;;;;-1.10;87.55;102230.26;1601387;89;20979;-35
2020/12/05 01:41:09;;;;;;;60.80;29.45;;;;;;;-1.11;87.64;102228.09;1601476;89;21018;-36
2020/12/05 01:43:40;;;;;;;69.00;31.97;;;;;;;-1.08;87.38;102221.05;1601374;89;20937;-34
2020/12/05 01:46:06;;;;;;;71.07;32.08;;;;;;;-1.08;87.25;102216.83;1601461;89;20900;-36
2020/12/05 01:48:35;;;;;;;66.82;31.62;;;;;;;-1.07;87.30;102218.58;1601470;89;21315;-35
2020/12/05 01:51:03;;;;;;;65.55;32.30;;;;;;;-1.08;87.34;102214.70;1601277;89;21023;-34
2020/12/05 01:53:31;;;;;;;64.17;31.97;;;;;;;-1.12;87.35;102234.38;1601483;89;21053;-34
2020/12/05 01:55:59;;;;;;;63.48;31.77;;;;;;;-1.13;87.41;102231.36;1601470;89;20932;-36
2020/12/05 01:58:27;;;;;;;70.03;31.90;;;;;;;-1.16;87.51;102230.36;1578651;89;20999;-34
2020/12/05 02:00:55;;;;;;;67.95;32.20;;;;;;;-1.13;87.51;102233.48;1601354;89;21383;-34
2020/12/05 02:03:23;;;;;;;71.20;33.50;;;;;;;-1.10;87.55;102235.34;1601375;89;21007;-34
2020/12/05 02:06:11;;;;;;;77.60;34.88;;;;;;;-1.09;87.39;102235.83;1601407;88;20994;-35
2020/12/05 02:08:47;;;;;;;64.32;33.10;;;;;;;-1.08;87.23;102229.95;1601360;89;21029;-37
2020/12/05 02:11:17;;;;;;;76.97;34.43;;;;;;;-1.13;87.29;102233.90;1601420;89;20986;-37
2020/12/05 02:13:46;;;;;;;62.93;33.18;;;;;;;-1.08;87.08;102237.58;1601388;89;21219;-35
2020/12/05 02:16:15;;;;;;;74.50;34.58;;;;;;;-1.14;87.16;102235.92;1578830;89;21006;-35
2020/12/05 02:18:46;;;;;;;76.17;35.73;;;;;;;-1.13;87.06;102236.44;1601418;89;21011;-35
2020/12/05 02:21:14;;;;;;;71.77;32.75;;;;;;;-1.15;87.10;102240.15;1601400;89;21003;-34
2020/12/05 02:23:46;;;;;;;67.75;33.30;;;;;;;-1.16;87.00;102243.48;1558576;89;21046;-35
2020/12/05 02:26:13;;;;;;;74.27;35.78;;;;;;;-1.13;86.78;102236.44;1601451;89;21402;-35
2020/12/05 02:28:41;;;;;;;68.90;33.67;;;;;;;-1.17;86.66;102234.97;1600980;89;21200;-35
2020/12/05 02:31:09;;;;;;;71.90;34.20;;;;;;;-1.19;86.60;102254.74;1601395;89;21034;-35
2020/12/05 02:33:38;;;;;;;69.72;33.25;;;;;;;-1.20;86.71;102258.94;1578459;89;20971;-34
2020/12/05 02:36:08;;;;;;;71.00;32.23;;;;;;;-1.19;86.32;102258.14;1601396;89;20959;-35
2020/12/05 02:39:01;;;;;;;70.67;33.58;;;;;;;-1.22;86.15;102255.84;1601328;89;21220;-35
2020/12/05 02:41:29;;;;;;;65.00;31.12;;;;;;;-1.23;85.87;102267.66;1601346;89;20955;-35
2020/12/05 02:43:59;;;;;;;66.33;32.13;;;;;;;-1.32;85.98;102270.52;1578755;89;20995;-36
2020/12/05 02:46:27;;;;;;;58.02;29.85;;;;;;;-1.34;86.16;102268.70;1539726;89;21044;-34
2020/12/05 02:48:56;;;;;;;58.42;30.77;;;;;;;-1.36;86.18;102276.63;1601461;89;20991;-35
2020/12/05 02:51:24;;;;;;;60.10;29.63;;;;;;;-1.36;86.32;102267.73;1601419;89;21367;-35
2020/12/05 02:53:51;;;;;;;67.87;29.90;;;;;;;-1.38;86.36;102261.68;1601338;89;21017;-35
2020/12/05 02:56:20;;;;;;;61.50;31.12;;;;;;;-1.36;86.44;102267.73;1601417;89;20915;-35
2020/12/05 02:58:48;;;;;;;61.37;29.50;;;;;;;-1.37;86.50;102268.52;1601388;89;20947;-34
2020/12/05 03:01:15;;;;;;;55.75;28.20;;;;;;;-1.37;86.60;102265.56;1601371;89;20990;-34
2020/12/05 03:03:45;;;;;;;59.73;29.20;;;;;;;-1.36;86.58;102264.78;1601370;89;22177;-34
2020/12/05 03:06:13;;;;;;;59.98;29.40;;;;;;;-1.35;86.32;102268.21;1601313;89;21115;-34
2020/12/05 03:08:41;;;;;;;59.67;27.20;;;;;;;-1.36;86.23;102271.55;1601344;89;21038;-34
2020/12/05 03:11:08;;;;;;;51.90;25.92;;;;;;;-1.37;86.29;102281.22;1601405;89;20947;-34
2020/12/05 03:13:36;;;;;;;59.77;27.75;;;;;;;-1.38;86.33;102280.33;1601512;89;20934;-36
2020/12/05 03:16:07;;;;;;;59.45;28.07;;;;;;;-1.36;86.07;102280.02;1601347;89;22139;-34
2020/12/05 03:18:35;;;;;;;49.67;24.25;;;;;;;-1.38;85.91;102273.11;1601350;89;21027;-36
2020/12/05 03:21:03;;;;;;;47.05;24.82;;;;;;;-1.40;85.59;102279.36;1601385;89;21018;-35
2020/12/05 03:23:31;;;;;;;43.17;23.65;;;;;;;-1.45;85.50;102272.72;1601484;89;21038;-35
2020/12/05 03:25:59;;;;;;;47.70;23.60;;;;;;;-1.47;85.51;102273.02;1601427;89;20939;-34
2020/12/05 03:28:27;;;;;;;45.45;24.07;;;;;;;-1.51;85.45;102273.63;1601306;89;22766;-35
2020/12/05 03:30:55;;;;;;;46.30;24.07;;;;;;;-1.51;85.39;102264.73;1601450;89;21078;-36
2020/12/05 03:33:24;;;;;;;41.80;23.22;;;;;;;-1.53;85.46;102267.96;1601418;89;21050;-35
2020/12/05 03:35:51;;;;;;;51.50;25.27;;;;;;;-1.54;85.59;102262.02;1601320;89;20987;-35
2020/12/05 03:38:19;;;;;;;46.50;24.50;;;;;;;-1.57;85.62;102263.11;1601406;89;21011;-35
2020/12/05 03:40:47;;;;;;;51.92;25.88;;;;;;;-1.55;85.55;102260.27;1601359;89;21454;-36
2020/12/05 03:44:19;;;;;;;42.98;23.25;;;;;;;-1.55;85.66;102261.91;1777056;79;22078;-34
2020/12/05 03:46:47;;;;;;;49.88;24.43;;;;;;;-1.62;85.71;102263.23;1749774;82;21014;-34
2020/12/05 03:49:15;;;;;;;49.10;23.67;;;;;;;-1.61;85.67;102262.45;1749893;82;21206;-35
2020/12/05 03:51:43;;;;;;;42.03;22.22;;;;;;;-1.62;85.75;102269.17;1749705;82;21108;-36
2020/12/05 03:54:11;;;;;;;44.33;24.85;;;;;;;-1.61;85.73;102266.25;1749793;82;21544;-35
2020/12/05 03:56:40;;;;;;;46.00;23.15;;;;;;;-1.60;85.77;102262.52;1749722;82;20927;-33
2020/12/05 03:59:08;;;;;;;38.02;21.42;;;;;;;-1.62;85.78;102264.09;1749846;82;20924;-35
2020/12/05 04:01:35;;;;;;;45.58;22.67;;;;;;;-1.63;85.84;102257.26;1720489;82;21220;-34
2020/12/05 04:04:03;;;;;;;46.98;22.82;;;;;;;-1.62;85.81;102261.55;1749814;82;21024;-35
2020/12/05 04:06:31;;;;;;;49.75;22.32;;;;;;;-1.60;85.36;102257.44;1749753;82;21026;-34
2020/12/05 04:09:00;;;;;;;43.20;23.47;;;;;;;-1.63;85.44;102255.98;1749691;82;21461;-34
2020/12/05 04:11:28;;;;;;;39.60;20.77;;;;;;;-1.64;85.38;102257.15;1749744;82;20935;-36
2020/12/05 04:13:56;;;;;;;38.78;21.23;;;;;;;-1.64;85.38;102257.15;1749718;82;21361;-34
2020/12/05 04:16:24;;;;;;;28.85;18.05;;;;;;;-1.62;85.43;102277.20;1749671;82;21051;-34
2020/12/05 04:18:51;;;;;;;35.13;18.40;;;;;;;-1.66;85.47;102272.31;1749728;82;20975;-34
2020/12/05 04:21:20;;;;;;;33.05;18.17;;;;;;;-1.65;85.44;102277.87;1749591;82;20947;-35
2020/12/05 04:23:47;;;;;;;46.33;18.82;;;;;;;-1.65;85.45;102280.80;1749716;82;20919;-35
2020/12/05 04:26:15;;;;;;;39.38;19.10;;;;;;;-1.66;85.38;102277.77;1749830;82;22504;-36
2020/12/05 04:28:43;;;;;;;30.57;16.77;;;;;;;-1.66;85.33;102281.20;1749764;81;20991;-35
2020/12/05 04:31:11;;;;;;;34.10;16.20;;;;;;;-1.66;84.92;102275.23;1749621;82;21010;-34
2020/12/05 04:33:39;;;;;;;24.77;14.35;;;;;;;-1.70;84.59;102279.64;1749677;82;20940;-34
2020/12/05 04:36:08;;;;;;;28.50;14.80;;;;;;;-1.71;84.49;102281.70;1749807;82;20916;-35
2020/12/05 04:38:36;;;;;;;27.22;14.65;;;;;;;-1.73;84.39;102282.89;1749641;82;21205;-35
2020/12/05 04:41:03;;;;;;;28.70;14.23;;;;;;;-1.71;84.10;102276.62;1749681;82;21030;-34
2020/12/05 04:43:36;;;;;;;30.15;14.43;;;;;;;-1.73;83.81;102289.23;1742415;81;21016;-36
2020/12/05 04:46:03;;;;;;;28.75;14.53;;;;;;;-1.80;83.73;102282.90;1736464;82;21008;-36
2020/12/05 04:48:32;;;;;;;30.50;14.55;;;;;;;-1.84;83.75;102286.04;1736637;82;21538;-35
2020/12/05 04:51:02;;;;;;;31.12;14.73;;;;;;;-1.84;83.69;102288.95;1736516;82;21431;-35
2020/12/05 04:53:32;;;;;;;31.02;15.03;;;;;;;-1.92;83.70;102284.66;1736540;82;20922;-35
2020/12/05 04:56:00;;;;;;;22.62;13.78;;;;;;;-1.93;83.88;102285.07;1735986;82;21564;-35
2020/12/05 04:58:28;;;;;;;36.25;16.73;;;;;;;-1.96;83.94;102298.84;1735962;82;20995;-36
2020/12/05 05:00:58;;;;;;;26.25;14.23;;;;;;;-1.93;84.04;102286.72;1735966;82;20964;-35
2020/12/05 05:03:27;;;;;;;28.07;14.90;;;;;;;-1.97;84.14;102301.28;1736048;82;21166;-36
2020/12/05 05:05:57;;;;;;;29.95;14.23;;;;;;;-1.97;84.07;102292.39;1736001;82;21498;-35
2020/12/05 05:08:26;;;;;;;29.25;14.05;;;;;;;-1.99;84.07;102270.73;1736008;82;20948;-34
2020/12/05 05:11:11;;;;;;;32.70;15.15;;;;;;;-1.97;83.50;102291.13;1735863;82;20996;-37
2020/12/05 05:14:00;;;;;;;27.73;14.07;;;;;;;-2.04;83.75;102295.83;1735975;82;21415;-35
2020/12/05 05:16:28;;;;;;;35.68;14.15;;;;;;;-2.07;83.77;102289.29;1735906;82;22062;-35
2020/12/05 05:18:59;;;;;;;27.48;13.55;;;;;;;-2.07;83.84;102285.48;1735949;82;21003;-37
2020/12/05 05:21:37;;;;;;;30.12;13.83;;;;;;;-2.09;83.92;102282.34;1715298;82;20972;-35
2020/12/05 05:24:19;;;;;;;23.30;13.38;;;;;;;-2.13;84.10;102297.80;1735950;82;21423;-36
2020/12/05 05:27:05;;;;;;;27.55;14.43;;;;;;;-2.09;84.04;102290.86;1735964;82;21028;-36
2020/12/05 05:29:38;;;;;;;26.37;13.75;;;;;;;-2.08;83.70;102301.49;1735909;82;21197;-36
2020/12/05 05:32:21;;;;;;;21.68;12.15;;;;;;;-2.10;83.67;102303.06;1735964;82;21007;-35
2020/12/05 05:34:47;;;;;;;28.77;13.68;;;;;;;-2.14;83.59;102305.30;1735913;82;20912;-36
2020/12/05 05:37:19;;;;;;;23.92;12.68;;;;;;;-2.15;83.74;102313.28;1735923;82;21003;-35
2020/12/05 05:39:49;;;;;;;28.12;14.58;;;;;;;-2.20;83.93;102318.47;1735744;81;20932;-36
2020/12/05 05:42:36;;;;;;;30.35;13.95;;;;;;;-2.17;83.78;102305.97;1735929;82;21370;-36
2020/12/05 05:45:27;;;;;;;28.60;13.62;;;;;;;-2.18;83.89;102315.63;1749898;81;20987;-36
2020/12/05 05:48:03;;;;;;;25.85;13.30;;;;;;;-2.19;83.96;102316.41;1749901;82;20986;-36
2020/12/05 05:50:33;;;;;;;29.10;14.33;;;;;;;-2.16;84.09;102325.48;1749968;82;21071;-35
2020/12/05 05:53:04;;;;;;;26.82;13.75;;;;;;;-2.15;84.00;102319.62;1749949;82;20920;-36
2020/12/05 05:55:48;;;;;;;27.32;14.05;;;;;;;-2.14;84.07;102326.87;1750030;82;21220;-36
2020/12/05 05:58:20;;;;;;;24.52;12.70;;;;;;;-2.10;83.92;102320.83;1749862;82;21015;-35
2020/12/05 06:00:49;;;;;;;26.68;13.72;;;;;;;-2.13;84.03;102328.63;1749874;82;20920;-36
2020/12/05 06:03:28;;;;;;;26.97;13.28;;;;;;;-2.11;84.02;102330.48;1749868;82;20955;-34
2020/12/05 06:05:58;;;;;;;25.40;12.82;;;;;;;-2.12;84.07;102326.57;1749908;81;21015;-34
2020/12/05 06:08:29;;;;;;;30.70;13.98;;;;;;;-2.11;84.12;102328.33;1749981;82;21501;-35
2020/12/05 06:10:59;;;;;;;24.60;11.75;;;;;;;-2.08;83.88;102325.61;1749885;82;20995;-35
2020/12/05 06:13:29;;;;;;;23.00;12.05;;;;;;;-2.08;83.55;102321.80;1749951;82;20959;-34
2020/12/05 06:15:59;;;;;;;19.98;10.88;;;;;;;-2.08;83.64;102328.14;1749983;82;20927;-33
2020/12/05 06:18:27;;;;;;;24.15;11.38;;;;;;;-2.10;83.70;102331.35;1749914;82;20991;-35
2020/12/05 06:20:54;;;;;;;20.60;11.20;;;;;;;-2.07;83.68;102333.70;1749857;82;21263;-34
2020/12/05 06:23:30;;;;;;;26.35;11.63;;;;;;;-2.08;83.67;102340.84;1749848;82;21046;-34
2020/12/05 06:26:01;;;;;;;23.02;10.60;;;;;;;-2.07;83.51;102330.28;1749967;82;20908;-34
2020/12/05 06:28:29;;;;;;;22.82;11.08;;;;;;;-2.07;83.66;102336.62;1749845;82;21441;-34
2020/12/05 06:30:56;;;;;;;30.12;11.97;;;;;;;-2.10;83.76;102332.25;1749921;82;21023;-36
2020/12/05 06:33:45;;;;;;;24.27;11.05;;;;;;;-2.07;83.83;102337.52;1749890;82;21428;-36
2020/12/05 06:36:31;;;;;;;21.15;10.30;;;;;;;-2.06;83.86;102349.42;1749831;82;20991;-36
2020/12/05 06:39:19;;;;;;;18.65;8.35;;;;;;;-2.07;84.03;102341.32;1749939;81;21003;-36
2020/12/05 06:41:49;;;;;;;21.82;11.18;;;;;;;-2.05;84.14;102354.09;1749864;82;21399;-37
2020/12/05 06:44:27;;;;;;;23.42;11.45;;;;;;;-2.02;83.95;102333.60;1741795;81;20971;-37
2020/12/05 06:47:04;;;;;;;24.25;10.60;;;;;;;-1.97;83.55;102348.23;1734002;82;21418;-35
2020/12/05 06:49:42;;;;;;;22.30;10.88;;;;;;;-1.95;83.35;102333.61;1735843;82;21582;-36
2020/12/05 06:52:30;;;;;;;22.00;11.30;;;;;;;-1.94;83.22;102344.63;1735903;82;20924;-37
2020/12/05 06:55:05;;;;;;;28.85;11.63;;;;;;;-1.99;83.58;102342.19;1735853;82;20916;-36
2020/12/05 06:57:34;;;;;;;26.50;10.23;;;;;;;-1.93;83.59;102332.41;1735868;82;21015;-36
2020/12/05 07:00:20;;;;;;;26.12;11.45;;;;;;;-1.96;83.90;102351.27;1735889;82;21363;-37
2020/12/05 07:02:58;;;;;;;30.52;12.37;;;;;;;-1.94;84.09;102342.98;1735885;82;21096;-36
2020/12/05 07:05:40;;;;;;;26.80;11.83;;;;;;;-1.88;84.14;102341.23;1735895;82;20988;-34
2020/12/05 07:08:31;;;;;;;27.00;12.15;;;;;;;-1.84;84.21;102326.66;1735824;82;20920;-35
2020/12/05 07:11:07;;;;;;;33.83;12.10;;;;;;;-1.84;84.12;102348.25;1735884;82;20912;-35
2020/12/05 07:13:47;;;;;;;26.25;11.83;;;;;;;-1.83;84.29;102357.62;1735863;82;21367;-36
2020/12/05 07:16:26;;;;;;;27.00;11.33;;;;;;;-1.81;84.36;102364.94;1735804;82;20980;-36
2020/12/05 07:19:00;;;;;;;33.20;13.68;;;;;;;-1.80;84.26;102356.54;1735803;82;21124;-36
2020/12/05 07:21:29;;;;;;;35.43;13.03;;;;;;;-1.79;83.96;102355.75;1735898;82;20999;-36
2020/12/05 07:23:57;;;;;;;37.23;13.55;;;;;;;-1.81;83.87;102356.05;1735946;82;21493;-36
2020/12/05 07:26:24;;;;;;;32.25;13.75;;;;;;;-1.83;83.71;102370.31;1735846;82;21020;-35
2020/12/05 07:28:56;;;;;;;34.55;14.47;;;;;;;-1.85;83.79;102365.53;1735919;82;21486;-35
2020/12/05 07:31:23;;;;;;;36.90;13.75;;;;;;;-1.86;83.96;102369.23;1735956;82;21580;-35
2020/12/05 07:33:52;;;;;;;39.10;15.40;;;;;;;-1.85;84.08;102359.19;1735834;82;21035;-34
2020/12/05 07:36:20;;;;;;;36.70;15.08;;;;;;;-1.85;84.03;102359.19;1735809;82;20912;-36
2020/12/05 07:38:49;;;;;;;40.83;15.03;;;;;;;-1.82;84.11;102361.02;1735935;82;22241;-35
2020/12/05 07:41:20;;;;;;;39.05;14.95;;;;;;;-1.80;83.99;102359.45;1735780;82;21443;-35
2020/12/05 07:43:48;;;;;;;38.35;14.58;;;;;;;-1.82;84.35;102355.56;1738849;82;21505;-36
2020/12/05 07:46:17;;;;;;;40.12;14.73;;;;;;;-1.83;84.35;102356.35;1749725;82;21423;-36
2020/12/05 07:48:44;;;;;;;40.60;15.30;;;;;;;-1.78;84.36;102353.70;1749812;82;20888;-34
2020/12/05 07:51:15;;;;;;;41.20;15.72;;;;;;;-1.80;84.40;102365.42;1749918;82;22713;-35
2020/12/05 07:53:45;;;;;;;39.65;14.43;;;;;;;-1.81;84.58;102367.48;1749773;82;20992;-37
2020/12/05 07:56:20;;;;;;;41.70;13.98;;;;;;;-1.71;84.51;102354.97;1749863;82;20963;-35
2020/12/05 07:58:51;;;;;;;36.45;13.60;;;;;;;-1.77;84.62;102368.53;1749910;82;28610;-35
2020/12/05 08:01:59;;;;;;;43.10;15.32;;;;;;;-1.75;84.70;102368.27;1749789;82;20912;-34
2020/12/05 08:04:54;;;;;;;41.02;14.95;;;;;;;-1.77;84.92;102359.27;1749827;82;21255;-35
2020/12/05 08:07:42;;;;;;;46.83;15.53;;;;;;;-1.78;85.04;102372.75;1749786;82;21131;-35
2020/12/05 08:10:12;;;;;;;54.85;15.60;;;;;;;-1.76;85.34;102371.18;1749866;82;21046;-34
2020/12/05 08:13:04;;;;;;;39.58;14.25;;;;;;;-1.75;85.30;102369.13;1749773;82;20924;-34
2020/12/05 08:15:33;;;;;;;54.00;16.50;;;;;;;-1.76;85.54;102374.12;1749783;82;21062;-35
2020/12/05 08:18:02;;;;;;;52.95;17.75;;;;;;;-1.73;85.67;102375.59;1749859;82;21361;-35
2020/12/05 08:20:32;;;;;;;59.25;17.95;;;;;;;-1.74;85.90;102373.42;1749878;82;20927;-36
2020/12/05 08:23:00;;;;;;;53.73;17.15;;;;;;;-1.68;85.96;102369.50;1749793;82;20947;-34
2020/12/05 08:25:29;;;;;;;49.13;17.15;;;;;;;-1.72;86.10;102377.72;1749832;82;21276;-34
2020/12/05 08:27:57;;;;;;;46.02;17.52;;;;;;;-1.71;86.18;102375.67;1749867;82;21015;-33
2020/12/05 08:30:25;;;;;;;43.48;16.75;;;;;;;-1.70;86.35;102378.69;1749912;82;21273;-35
2020/12/05 08:33:02;;;;;;;52.20;17.35;;;;;;;-1.67;86.50;102383.95;1749893;82;21027;-34
2020/12/05 08:35:31;;;;;;;51.20;16.70;;;;;;;-1.60;86.41;102378.50;1749948;82;20923;-35
2020/12/05 08:38:02;;;;;;;46.42;15.90;;;;;;;-1.55;86.25;102387.66;1750083;82;20928;-35
2020/12/05 08:40:31;;;;;;;54.20;15.20;;;;;;;-1.61;86.37;102379.28;1749940;82;20883;-35
2020/12/05 08:43:00;;;;;;;48.25;16.25;;;;;;;-1.59;86.57;102375.18;1749968;82;22562;-34
2020/12/05 08:45:28;;;;;;;52.53;17.62;;;;;;;-1.55;86.60;102373.31;1728197;81;20971;-37
2020/12/05 08:47:55;;;;;;;50.10;16.85;;;;;;;-1.58;86.73;102384.55;1757642;81;20983;-35
2020/12/05 08:50:35;;;;;;;50.38;16.65;;;;;;;-1.53;86.83;102375.93;1757631;81;21190;-36
2020/12/05 08:53:03;;;;;;;49.63;17.07;;;;;;;-1.52;86.83;102382.39;1757772;81;20943;-36
2020/12/05 08:55:31;;;;;;;50.20;16.27;;;;;;;-1.55;86.99;102380.03;1757667;81;21307;-35
2020/12/05 08:58:01;;;;;;;61.88;19.02;;;;;;;-1.50;87.15;102374.88;1757699;81;20986;-34
2020/12/05 09:00:31;;;;;;;42.45;16.65;;;;;;;-1.41;87.08;102383.05;1757699;81;20939;-34
2020/12/05 09:02:59;;;;;;;50.70;17.37;;;;;;;-1.43;87.09;102378.65;1757762;81;21438;-35
2020/12/05 09:05:27;;;;;;;48.38;18.12;;;;;;;-1.41;87.00;102382.16;1757737;81;20967;-34
2020/12/05 09:08:00;;;;;;;51.70;16.02;;;;;;;-1.38;87.00;102380.70;1757708;81;21909;-35
2020/12/05 09:10:28;;;;;;;53.60;17.60;;;;;;;-1.37;87.04;102371.43;1757672;81;20927;-36
2020/12/05 09:13:06;;;;;;;59.18;17.20;;;;;;;-1.31;86.76;102375.20;1757618;81;21007;-37
2020/12/05 09:15:35;;;;;;;45.78;16.10;;;;;;;-1.32;86.89;102371.31;1757621;81;20975;-38
2020/12/05 09:18:03;;;;;;;46.68;16.82;;;;;;;-1.31;86.88;102370.53;1757751;81;21002;-36
2020/12/05 09:20:30;;;;;;;50.98;15.65;;;;;;;-1.23;86.70;102371.00;1757650;81;21373;-35
2020/12/05 09:23:03;;;;;;;44.65;15.28;;;;;;;-1.22;86.76;102369.80;1757751;81;20995;-35
2020/12/05 09:25:36;;;;;;;51.90;16.15;;;;;;;-1.21;86.79;102353.77;1757714;81;21041;-37
2020/12/05 09:28:12;;;;;;;40.03;14.87;;;;;;;-1.20;86.65;102365.69;1757701;81;20980;-35
2020/12/05 09:30:40;;;;;;;46.20;16.52;;;;;;;-1.17;86.72;102362.05;1757765;81;21038;-35
2020/12/05 09:33:17;;;;;;;37.03;13.55;;;;;;;-1.20;86.83;102368.64;1757881;81;21265;-36
2020/12/05 09:35:45;;;;;;;50.28;16.62;;;;;;;-1.18;86.99;102353.95;1757702;81;21486;-36
2020/12/05 09:38:13;;;;;;;35.88;14.45;;;;;;;-1.19;87.13;102356.00;1757771;81;20986;-35
2020/12/05 09:40:42;;;;;;;40.38;15.18;;;;;;;-1.20;87.21;102351.70;1757640;81;20935;-35
2020/12/05 09:43:10;;;;;;;39.98;15.05;;;;;;;-1.17;87.42;102358.66;1757603;81;20912;-34
2020/12/05 09:45:39;;;;;;;43.20;15.75;;;;;;;-1.13;87.53;102355.50;1743313;81;21282;-35
2020/12/05 09:48:07;;;;;;;39.35;15.23;;;;;;;-1.19;87.44;102353.88;1735907;82;20928;-35
2020/12/05 09:50:34;;;;;;;46.77;15.75;;;;;;;-1.22;87.59;102347.34;1735870;82;21007;-36
2020/12/05 09:53:02;;;;;;;37.98;14.33;;;;;;;-1.27;87.70;102347.42;1735987;82;21016;-35
2020/12/05 09:55:30;;;;;;;49.55;17.12;;;;;;;-1.38;87.91;102354.42;1735849;82;20897;-35
2020/12/05 09:57:58;;;;;;;52.20;16.42;;;;;;;-1.37;88.27;102344.75;1735895;82;22324;-35
2020/12/05 10:00:26;;;;;;;38.95;14.45;;;;;;;-1.40;88.17;102352.16;1735820;82;21016;-35
2020/12/05 10:02:55;;;;;;;47.17;14.83;;;;;;;-1.40;87.90;102352.16;1735903;82;21007;-36
2020/12/05 10:05:23;;;;;;;47.05;14.38;;;;;;;-1.43;87.59;102344.34;1735951;82;21380;-35
2020/12/05 10:07:51;;;;;;;45.83;15.75;;;;;;;-1.42;87.65;102347.38;1735909;82;20940;-36
2020/12/05 10:10:19;;;;;;;40.75;15.05;;;;;;;-1.39;87.50;102355.18;1736047;82;21211;-35
2020/12/05 10:12:47;;;;;;;55.63;16.57;;;;;;;-1.36;87.60;102352.45;1735831;82;21182;-36
2020/12/05 10:15:15;;;;;;;32.42;13.85;;;;;;;-1.32;87.37;102350.98;1735883;82;20972;-36
2020/12/05 10:17:43;;;;;;;39.05;12.90;;;;;;;-1.39;87.48;102353.53;1735846;82;20968;-36
2020/12/05 10:20:11;;;;;;;39.15;14.45;;;;;;;-1.33;87.20;102353.90;1736070;82;20917;-34
2020/12/05 10:22:39;;;;;;;39.35;14.73;;;;;;;-1.26;86.90;102352.99;1735915;82;21374;-35
2020/12/05 10:25:09;;;;;;;42.03;14.38;;;;;;;-1.24;86.65;102352.72;1735712;82;20952;-36
2020/12/05 10:27:38;;;;;;;35.33;13.78;;;;;;;-1.18;86.19;102357.76;1735870;82;20987;-35
2020/12/05 10:30:08;;;;;;;34.20;12.65;;;;;;;-1.16;86.23;102353.64;1735897;82;20956;-36
2020/12/05 10:32:37;;;;;;;40.50;14.45;;;;;;;-1.09;86.24;102355.31;1735865;82;21003;-35
2020/12/05 10:35:06;;;;;;;36.17;13.20;;;;;;;-0.98;85.13;102347.91;1735792;82;21210;-35
2020/12/05 10:37:33;;;;;;;39.13;13.50;;;;;;;-1.06;85.08;102359.30;1735833;82;21003;-36
2020/12/05 10:40:01;;;;;;;36.38;13.78;;;;;;;-1.03;84.68;102358.20;1735905;82;20920;-35
2020/12/05 10:42:29;;;;;;;27.85;12.88;;;;;;;-1.04;84.42;102359.86;1735814;82;20932;-35
2020/12/05 10:44:59;;;;;;;39.70;13.78;;;;;;;-1.10;84.63;102373.48;1739006;81;20881;-35
2020/12/05 10:47:26;;;;;;;32.63;12.90;;;;;;;-1.11;84.64;102375.95;1749866;82;21204;-35
2020/12/05 10:49:54;;;;;;;35.13;12.47;;;;;;;-1.07;84.78;102374.93;1749755;82;21129;-37
2020/12/05 10:52:22;;;;;;;25.23;11.12;;;;;;;-1.05;84.27;102371.22;1749903;82;21026;-34
2020/12/05 10:54:50;;;;;;;30.00;11.95;;;;;;;-1.05;84.54;102375.04;1749809;82;20991;-35
2020/12/05 10:57:18;;;;;;;28.52;12.35;;;;;;;-0.99;84.06;102370.72;1749994;82;20924;-35
2020/12/05 10:59:46;;;;;;;27.98;12.07;;;;;;;-1.01;84.26;102350.28;1749916;82;22363;-36
2020/12/05 11:02:14;;;;;;;27.07;12.13;;;;;;;-0.99;83.74;102357.59;1749725;82;20995;-35
2020/12/05 11:04:42;;;;;;;33.02;10.53;;;;;;;-0.95;83.79;102359.94;1749821;82;20955;-35
2020/12/05 11:07:10;;;;;;;29.92;10.65;;;;;;;-0.99;83.63;102349.97;1749903;82;20916;-35
2020/12/05 11:09:39;;;;;;;58.98;15.20;;;;;;;-0.99;83.60;102352.92;1749814;82;20920;-35
2020/12/05 11:12:09;;;;;;;23.87;11.10;;;;;;;-0.98;83.77;102351.72;1749761;82;22299;-35
2020/12/05 11:14:37;;;;;;;32.67;11.83;;;;;;;-0.95;83.70;102354.45;1749804;82;20935;-34
2020/12/05 11:17:04;;;;;;;31.48;12.05;;;;;;;-0.95;83.95;102355.72;1749853;82;20983;-37
2020/12/05 11:19:32;;;;;;;24.77;11.40;;;;;;;-0.90;84.03;102356.00;1749774;82;21019;-36
2020/12/05 11:22:02;;;;;;;27.27;11.97;;;;;;;-0.84;84.06;102358.89;1749974;82;20987;-35
2020/12/05 11:24:29;;;;;;;58.38;14.90;;;;;;;-0.79;83.56;102355.36;1749813;82;21122;-35
2020/12/05 11:26:57;;;;;;;27.15;11.83;;;;;;;-0.79;83.72;102352.41;1749793;82;20987;-35